sensor_id;sensor_type;location;lat;lon;timestamp;temperature;humidity
36790;DHT22;22740;52.182;8.780;2022-09-09T00:01:54;15.70;99.90
36790;DHT22;22740;52.182;8.780;2022-09-09T00:08:01;15.60;99.90
36790;DHT22;22740;52.182;8.780;2022-09-09T00:14:13;15.60;99.90
36790;DHT22;22740;52.182;8.780;2022-09-09T00:20:32;15.60;99.90
36790;DHT22;22740;52.182;8.780;2022-09-09T00:26:47;15.70;99.90
36790;DHT22;22740;52.182;8.780;2022-09-09T00:32:55;15.60;99.90
36790;DHT22;22740;52.182;8.780;2022-09-09T00:39:02;15.70;99.90
36790;DHT22;22740;52.182;8.780;2022-09-09T00:58:09;15.70;99.90
36790;DHT22;22740;52.182;8.780;2022-09-09T01:04:18;15.70;99.90
36790;DHT22;22740;52.182;8.780;2022-09-09T01:10:49;15.70;99.90
36790;DHT22;22740;52.182;8.780;2022-09-09T01:16:54;15.50;99.90
36790;DHT22;22740;52.182;8.780;2022-09-09T01:23:20;15.50;99.90
36790;DHT22;22740;52.182;8.780;2022-09-09T01:29:24;15.50;99.90
36790;DHT22;22740;52.182;8.780;2022-09-09T01:41:57;15.40;99.90
36790;DHT22;22740;52.182;8.780;2022-09-09T01:47:59;15.30;99.90
36790;DHT22;22740;52.182;8.780;2022-09-09T01:54:02;15.30;99.90
36790;DHT22;22740;52.182;8.780;2022-09-09T02:00:07;15.40;99.90
36790;DHT22;22740;52.182;8.780;2022-09-09T02:06:25;15.40;99.90
36790;DHT22;22740;52.182;8.780;2022-09-09T02:12:29;15.50;99.90
36790;DHT22;22740;52.182;8.780;2022-09-09T02:18:49;15.50;99.90
36790;DHT22;22740;52.182;8.780;2022-09-09T02:24:52;15.50;99.90
36790;DHT22;22740;52.182;8.780;2022-09-09T02:30:57;15.50;99.90
36790;DHT22;22740;52.182;8.780;2022-09-09T02:37:00;15.50;99.90
36790;DHT22;22740;52.182;8.780;2022-09-09T02:43:04;15.50;99.90
36790;DHT22;22740;52.182;8.780;2022-09-09T02:49:10;15.50;99.90
36790;DHT22;22740;52.182;8.780;2022-09-09T02:55:41;15.50;99.90
36790;DHT22;22740;52.182;8.780;2022-09-09T03:01:47;15.50;99.90
36790;DHT22;22740;52.182;8.780;2022-09-09T03:07:49;15.50;99.90
36790;DHT22;22740;52.182;8.780;2022-09-09T03:13:52;15.60;99.90
36790;DHT22;22740;52.182;8.780;2022-09-09T03:19:54;15.60;99.90
36790;DHT22;22740;52.182;8.780;2022-09-09T03:25:56;15.60;99.90
36790;DHT22;22740;52.182;8.780;2022-09-09T03:32:00;15.50;99.90
36790;DHT22;22740;52.182;8.780;2022-09-09T03:38:01;15.50;99.90
36790;DHT22;22740;52.182;8.780;2022-09-09T03:44:03;15.50;99.90
36790;DHT22;22740;52.182;8.780;2022-09-09T03:50:06;15.50;99.90
36790;DHT22;22740;52.182;8.780;2022-09-09T03:56:10;15.50;99.90
36790;DHT22;22740;52.182;8.780;2022-09-09T04:02:12;15.50;99.90
36790;DHT22;22740;52.182;8.780;2022-09-09T04:08:14;15.50;99.90
36790;DHT22;22740;52.182;8.780;2022-09-09T04:14:16;15.50;99.90
36790;DHT22;22740;52.182;8.780;2022-09-09T04:20:17;15.50;99.90
36790;DHT22;22740;52.182;8.780;2022-09-09T04:26:20;15.40;99.90
36790;DHT22;22740;52.182;8.780;2022-09-09T04:32:22;15.50;99.90
36790;DHT22;22740;52.182;8.780;2022-09-09T04:38:24;15.50;99.90
36790;DHT22;22740;52.182;8.780;2022-09-09T04:44:27;15.50;99.90
36790;DHT22;22740;52.182;8.780;2022-09-09T04:50:29;15.50;99.90
36790;DHT22;22740;52.182;8.780;2022-09-09T04:56:31;15.50;99.90
36790;DHT22;22740;52.182;8.780;2022-09-09T05:02:36;15.40;99.90
36790;DHT22;22740;52.182;8.780;2022-09-09T05:08:39;15.50;99.90
36790;DHT22;22740;52.182;8.780;2022-09-09T05:14:41;15.40;99.90
36790;DHT22;22740;52.182;8.780;2022-09-09T05:20:43;15.30;99.90
36790;DHT22;22740;52.182;8.780;2022-09-09T05:26:45;15.10;99.90
36790;DHT22;22740;52.182;8.780;2022-09-09T05:32:48;14.90;99.90
36790;DHT22;22740;52.182;8.780;2022-09-09T05:38:51;14.90;99.90
36790;DHT22;22740;52.182;8.780;2022-09-09T05:44:55;14.80;99.90
36790;DHT22;22740;52.182;8.780;2022-09-09T05:50:58;14.80;99.90
36790;DHT22;22740;52.182;8.780;2022-09-09T05:57:00;14.90;99.90
36790;DHT22;22740;52.182;8.780;2022-09-09T06:03:01;14.90;99.90
36790;DHT22;22740;52.182;8.780;2022-09-09T06:09:05;14.80;99.90
36790;DHT22;22740;52.182;8.780;2022-09-09T06:15:08;14.90;99.90
36790;DHT22;22740;52.182;8.780;2022-09-09T06:21:16;15.00;99.90
36790;DHT22;22740;52.182;8.780;2022-09-09T06:27:18;15.10;99.90
36790;DHT22;22740;52.182;8.780;2022-09-09T06:33:20;15.30;99.90
36790;DHT22;22740;52.182;8.780;2022-09-09T06:39:22;15.50;99.90
36790;DHT22;22740;52.182;8.780;2022-09-09T06:45:24;15.70;99.90
36790;DHT22;22740;52.182;8.780;2022-09-09T06:51:30;15.90;99.90
36790;DHT22;22740;52.182;8.780;2022-09-09T06:57:32;16.00;99.90
36790;DHT22;22740;52.182;8.780;2022-09-09T07:03:39;16.10;99.90
36790;DHT22;22740;52.182;8.780;2022-09-09T07:09:41;16.40;99.90
36790;DHT22;22740;52.182;8.780;2022-09-09T07:15:42;16.60;99.90
36790;DHT22;22740;52.182;8.780;2022-09-09T07:21:44;16.80;99.90
36790;DHT22;22740;52.182;8.780;2022-09-09T07:27:46;17.00;99.90
36790;DHT22;22740;52.182;8.780;2022-09-09T07:33:48;17.10;99.90
36790;DHT22;22740;52.182;8.780;2022-09-09T07:39:50;17.10;99.90
36790;DHT22;22740;52.182;8.780;2022-09-09T07:45:58;17.20;99.90
36790;DHT22;22740;52.182;8.780;2022-09-09T07:51:59;17.30;99.90
36790;DHT22;22740;52.182;8.780;2022-09-09T07:58:01;17.20;99.90
36790;DHT22;22740;52.182;8.780;2022-09-09T08:04:05;17.30;99.90
36790;DHT22;22740;52.182;8.780;2022-09-09T08:10:08;17.20;99.90
36790;DHT22;22740;52.182;8.780;2022-09-09T08:16:18;17.20;99.90
36790;DHT22;22740;52.182;8.780;2022-09-09T08:22:20;17.30;99.90
36790;DHT22;22740;52.182;8.780;2022-09-09T08:28:23;17.30;99.90
36790;DHT22;22740;52.182;8.780;2022-09-09T08:34:26;17.30;99.90
36790;DHT22;22740;52.182;8.780;2022-09-09T08:40:33;17.30;99.90
36790;DHT22;22740;52.182;8.780;2022-09-09T08:46:57;17.50;99.90
36790;DHT22;22740;52.182;8.780;2022-09-09T08:53:19;17.60;99.90
36790;DHT22;22740;52.182;8.780;2022-09-09T08:59:23;17.80;99.90
36790;DHT22;22740;52.182;8.780;2022-09-09T09:06:19;17.80;99.90
36790;DHT22;22740;52.182;8.780;2022-09-09T09:12:20;18.20;99.90
36790;DHT22;22740;52.182;8.780;2022-09-09T09:18:23;18.40;99.90
36790;DHT22;22740;52.182;8.780;2022-09-09T09:30:42;18.50;99.90
36790;DHT22;22740;52.182;8.780;2022-09-09T09:36:57;18.40;99.90
36790;DHT22;22740;52.182;8.780;2022-09-09T09:43:00;18.20;99.90
36790;DHT22;22740;52.182;8.780;2022-09-09T09:49:04;17.80;99.90
36790;DHT22;22740;52.182;8.780;2022-09-09T09:55:13;18.30;99.90
36790;DHT22;22740;52.182;8.780;2022-09-09T10:01:29;18.60;99.90
36790;DHT22;22740;52.182;8.780;2022-09-09T10:07:34;19.00;99.90
36790;DHT22;22740;52.182;8.780;2022-09-09T10:14:12;19.50;99.90
36790;DHT22;22740;52.182;8.780;2022-09-09T10:57:48;19.00;99.90
36790;DHT22;22740;52.182;8.780;2022-09-09T11:04:03;19.80;99.90
36790;DHT22;22740;52.182;8.780;2022-09-09T11:29:24;20.30;99.90
36790;DHT22;22740;52.182;8.780;2022-09-09T11:35:53;20.30;99.90
36790;DHT22;22740;52.182;8.780;2022-09-09T11:48:26;21.40;99.90
36790;DHT22;22740;52.182;8.780;2022-09-09T11:54:31;21.80;99.90
36790;DHT22;22740;52.182;8.780;2022-09-09T12:00:47;22.00;99.90
36790;DHT22;22740;52.182;8.780;2022-09-09T12:19:21;21.90;99.90
36790;DHT22;22740;52.182;8.780;2022-09-09T12:31:56;22.00;99.90
36790;DHT22;22740;52.182;8.780;2022-09-09T12:38:01;22.10;99.90
36790;DHT22;22740;52.182;8.780;2022-09-09T12:44:05;22.00;99.90
36790;DHT22;22740;52.182;8.780;2022-09-09T12:50:48;22.00;99.90
36790;DHT22;22740;52.182;8.780;2022-09-09T12:56:50;22.40;99.90
36790;DHT22;22740;52.182;8.780;2022-09-09T13:02:57;22.80;99.90
36790;DHT22;22740;52.182;8.780;2022-09-09T13:09:01;22.40;99.90
36790;DHT22;22740;52.182;8.780;2022-09-09T13:15:04;21.70;99.90
36790;DHT22;22740;52.182;8.780;2022-09-09T13:21:12;21.40;99.90
36790;DHT22;22740;52.182;8.780;2022-09-09T13:27:36;21.40;99.90
36790;DHT22;22740;52.182;8.780;2022-09-09T13:33:41;21.40;99.90
36790;DHT22;22740;52.182;8.780;2022-09-09T13:39:51;21.60;99.90
36790;DHT22;22740;52.182;8.780;2022-09-09T13:46:21;21.10;99.90
36790;DHT22;22740;52.182;8.780;2022-09-09T13:52:26;20.90;99.90
36790;DHT22;22740;52.182;8.780;2022-09-09T13:58:32;20.80;99.90
36790;DHT22;22740;52.182;8.780;2022-09-09T14:04:34;20.80;99.90
36790;DHT22;22740;52.182;8.780;2022-09-09T14:10:36;21.40;99.90
36790;DHT22;22740;52.182;8.780;2022-09-09T14:16:38;21.60;99.90
36790;DHT22;22740;52.182;8.780;2022-09-09T14:22:40;21.20;99.90
36790;DHT22;22740;52.182;8.780;2022-09-09T14:28:42;21.00;99.90
36790;DHT22;22740;52.182;8.780;2022-09-09T14:35:00;21.40;99.90
36790;DHT22;22740;52.182;8.780;2022-09-09T14:41:03;21.70;99.90
36790;DHT22;22740;52.182;8.780;2022-09-09T14:47:06;21.60;99.90
36790;DHT22;22740;52.182;8.780;2022-09-09T14:53:10;21.30;99.90
36790;DHT22;22740;52.182;8.780;2022-09-09T14:59:11;21.70;99.90
36790;DHT22;22740;52.182;8.780;2022-09-09T15:05:14;21.70;99.90
36790;DHT22;22740;52.182;8.780;2022-09-09T15:11:18;21.60;99.90
36790;DHT22;22740;52.182;8.780;2022-09-09T15:17:20;21.20;99.90
36790;DHT22;22740;52.182;8.780;2022-09-09T15:23:22;20.90;99.90
36790;DHT22;22740;52.182;8.780;2022-09-09T15:29:24;20.80;99.90
36790;DHT22;22740;52.182;8.780;2022-09-09T15:35:26;20.60;99.90
36790;DHT22;22740;52.182;8.780;2022-09-09T15:41:29;20.60;99.90
36790;DHT22;22740;52.182;8.780;2022-09-09T15:47:33;20.50;99.90
36790;DHT22;22740;52.182;8.780;2022-09-09T15:53:34;20.50;99.90
36790;DHT22;22740;52.182;8.780;2022-09-09T15:59:36;20.60;99.90
36790;DHT22;22740;52.182;8.780;2022-09-09T16:05:38;21.10;99.90
36790;DHT22;22740;52.182;8.780;2022-09-09T16:11:40;21.20;99.90
36790;DHT22;22740;52.182;8.780;2022-09-09T16:17:42;20.70;99.90
36790;DHT22;22740;52.182;8.780;2022-09-09T16:23:44;20.40;99.90
36790;DHT22;22740;52.182;8.780;2022-09-09T16:29:47;20.30;99.90
36790;DHT22;22740;52.182;8.780;2022-09-09T16:35:48;20.40;99.90
36790;DHT22;22740;52.182;8.780;2022-09-09T16:41:51;20.30;99.90
36790;DHT22;22740;52.182;8.780;2022-09-09T16:47:53;20.30;99.90
36790;DHT22;22740;52.182;8.780;2022-09-09T16:53:57;20.10;99.90
36790;DHT22;22740;52.182;8.780;2022-09-09T17:00:00;20.00;99.90
36790;DHT22;22740;52.182;8.780;2022-09-09T17:06:03;19.90;99.90
36790;DHT22;22740;52.182;8.780;2022-09-09T17:12:06;19.60;99.90
36790;DHT22;22740;52.182;8.780;2022-09-09T17:18:12;17.70;99.90
36790;DHT22;22740;52.182;8.780;2022-09-09T17:24:14;17.10;99.90
36790;DHT22;22740;52.182;8.780;2022-09-09T17:30:17;16.90;99.90
36790;DHT22;22740;52.182;8.780;2022-09-09T17:36:24;16.70;99.90
36790;DHT22;22740;52.182;8.780;2022-09-09T17:42:26;16.50;99.90
36790;DHT22;22740;52.182;8.780;2022-09-09T17:48:30;16.30;99.90
36790;DHT22;22740;52.182;8.780;2022-09-09T17:54:31;16.20;99.90
36790;DHT22;22740;52.182;8.780;2022-09-09T18:00:35;16.10;99.90
36790;DHT22;22740;52.182;8.780;2022-09-09T18:06:41;16.20;99.90
36790;DHT22;22740;52.182;8.780;2022-09-09T18:12:43;16.10;99.90
36790;DHT22;22740;52.182;8.780;2022-09-09T18:18:45;16.10;99.90
36790;DHT22;22740;52.182;8.780;2022-09-09T18:24:47;16.20;99.90
36790;DHT22;22740;52.182;8.780;2022-09-09T18:30:52;16.30;99.90
36790;DHT22;22740;52.182;8.780;2022-09-09T18:36:54;16.30;99.90
36790;DHT22;22740;52.182;8.780;2022-09-09T18:42:56;16.40;99.90
36790;DHT22;22740;52.182;8.780;2022-09-09T18:48:58;16.50;99.90
36790;DHT22;22740;52.182;8.780;2022-09-09T18:55:00;16.40;99.90
36790;DHT22;22740;52.182;8.780;2022-09-09T19:01:03;16.30;99.90
36790;DHT22;22740;52.182;8.780;2022-09-09T19:07:07;16.30;99.90
36790;DHT22;22740;52.182;8.780;2022-09-09T19:13:09;16.30;99.90
36790;DHT22;22740;52.182;8.780;2022-09-09T19:19:17;16.30;99.90
36790;DHT22;22740;52.182;8.780;2022-09-09T19:25:19;16.30;99.90
36790;DHT22;22740;52.182;8.780;2022-09-09T19:31:21;16.30;99.90
36790;DHT22;22740;52.182;8.780;2022-09-09T19:37:24;16.30;99.90
36790;DHT22;22740;52.182;8.780;2022-09-09T19:43:26;16.10;99.90
36790;DHT22;22740;52.182;8.780;2022-09-09T19:49:28;16.00;99.90
36790;DHT22;22740;52.182;8.780;2022-09-09T19:55:31;15.90;99.90
36790;DHT22;22740;52.182;8.780;2022-09-09T20:01:35;15.80;99.90
36790;DHT22;22740;52.182;8.780;2022-09-09T20:07:40;15.80;99.90
36790;DHT22;22740;52.182;8.780;2022-09-09T20:13:43;15.70;99.90
36790;DHT22;22740;52.182;8.780;2022-09-09T20:19:45;15.70;99.90
36790;DHT22;22740;52.182;8.780;2022-09-09T20:25:46;15.70;99.90
36790;DHT22;22740;52.182;8.780;2022-09-09T20:31:48;15.70;99.90
36790;DHT22;22740;52.182;8.780;2022-09-09T20:37:50;15.70;99.90
36790;DHT22;22740;52.182;8.780;2022-09-09T20:49:54;15.80;99.90
36790;DHT22;22740;52.182;8.780;2022-09-09T20:56:00;15.80;99.90
36790;DHT22;22740;52.182;8.780;2022-09-09T21:02:03;15.70;99.90
36790;DHT22;22740;52.182;8.780;2022-09-09T21:08:05;15.80;99.90
36790;DHT22;22740;52.182;8.780;2022-09-09T21:14:07;15.80;99.90
36790;DHT22;22740;52.182;8.780;2022-09-09T21:20:09;15.70;99.90
36790;DHT22;22740;52.182;8.780;2022-09-09T21:26:11;15.70;99.90
36790;DHT22;22740;52.182;8.780;2022-09-09T21:32:13;15.60;99.90
36790;DHT22;22740;52.182;8.780;2022-09-09T21:38:20;15.60;99.90
36790;DHT22;22740;52.182;8.780;2022-09-09T21:44:22;15.50;99.90
36790;DHT22;22740;52.182;8.780;2022-09-09T21:50:24;15.60;99.90
36790;DHT22;22740;52.182;8.780;2022-09-09T21:56:29;15.50;99.90
36790;DHT22;22740;52.182;8.780;2022-09-09T22:02:30;15.50;99.90
36790;DHT22;22740;52.182;8.780;2022-09-09T22:08:33;15.60;99.90
36790;DHT22;22740;52.182;8.780;2022-09-09T22:14:36;15.50;99.90
36790;DHT22;22740;52.182;8.780;2022-09-09T22:20:40;15.60;99.90
36790;DHT22;22740;52.182;8.780;2022-09-09T22:26:43;15.60;99.90
36790;DHT22;22740;52.182;8.780;2022-09-09T22:32:45;15.60;99.90
36790;DHT22;22740;52.182;8.780;2022-09-09T22:38:47;15.50;99.90
36790;DHT22;22740;52.182;8.780;2022-09-09T22:44:49;15.50;99.90
36790;DHT22;22740;52.182;8.780;2022-09-09T22:50:51;15.50;99.90
36790;DHT22;22740;52.182;8.780;2022-09-09T22:56:54;15.50;99.90
36790;DHT22;22740;52.182;8.780;2022-09-09T23:02:56;15.50;99.90
36790;DHT22;22740;52.182;8.780;2022-09-09T23:09:00;15.50;99.90
36790;DHT22;22740;52.182;8.780;2022-09-09T23:15:03;15.40;99.90
36790;DHT22;22740;52.182;8.780;2022-09-09T23:21:12;15.50;99.90
36790;DHT22;22740;52.182;8.780;2022-09-09T23:27:15;15.50;99.90
36790;DHT22;22740;52.182;8.780;2022-09-09T23:33:17;15.40;99.90
36790;DHT22;22740;52.182;8.780;2022-09-09T23:39:19;15.40;99.90
36790;DHT22;22740;52.182;8.780;2022-09-09T23:45:21;15.40;99.90
36790;DHT22;22740;52.182;8.780;2022-09-09T23:51:24;15.50;99.90
36790;DHT22;22740;52.182;8.780;2022-09-09T23:57:28;15.50;99.90
